Buffalo, South Dakota
Current Conditions -  °F | °C
As of 10:53 PM on Thursday 27 Nov 2014 (Local Time) from KHEI Reporting Station
Clear Clear  
Wind Chill: 21°   Ceiling: Unl
Heat Index: 21°   Visibility: 10mi
Dew Point: 18°   Wind: 0mph
Humidity: 88%   Direction: NA
Pressure: 29.76"   Gusts: NA
Location:  45.58°N, 103.55°W
Report Text: KHEI 280553Z AUTO 00000KT 10SM CLR M06/M08 A2976 RMK AO2 SLP118 T10611078 11044 21072 56015
Loading
Personal Weather Stations






























Interactive Weather Map New forecast layout! Learn more

10-Day Weather Forecast

Advertisements
Track Severe Weather on mobile